Time;durP1;ratioP1;P1;durP2;ratioP2;P2;SDS_P1;SDS_P2;PMS_P1;PMS_P2;Temp;Humidity;BMP_temperature;BMP_pressure;BME280_temperature;BME280_humidity;BME280_pressure;Samples;Min_cycle;Max_cycle;Signal;HPM_P1;HPM_P2
2021/03/16 00:01:37;;;;;;;25.27;17.57;;;;;;;4.73;83.88;99525.33;1799637;77;21372;-71
2021/03/16 00:04:08;;;;;;;22.13;16.10;;;;;;;4.71;83.75;99523.47;1822495;76;22322;-72
2021/03/16 00:06:44;;;;;;;21.52;17.73;;;;;;;4.69;83.71;99528.19;1809172;78;21189;-72
2021/03/16 00:09:11;;;;;;;23.95;17.67;;;;;;;4.63;83.60;99527.84;1813289;77;21166;-70
2021/03/16 00:11:39;;;;;;;21.93;16.25;;;;;;;4.59;83.58;99528.84;1825402;76;21725;-71
2021/03/16 00:14:07;;;;;;;20.50;15.25;;;;;;;4.54;83.50;99524.82;1815028;77;21112;-69
2021/03/16 00:16:35;;;;;;;20.30;15.93;;;;;;;4.52;83.48;99524.25;1811539;77;21176;-74
2021/03/16 00:19:03;;;;;;;24.30;16.97;;;;;;;4.48;83.44;99525.78;1804125;78;21152;-70
2021/03/16 00:21:31;;;;;;;23.80;18.10;;;;;;;4.43;83.38;99531.78;1812484;77;21184;-69
2021/03/16 00:23:59;;;;;;;22.70;17.62;;;;;;;4.38;83.39;99529.59;1814882;78;21166;-69
2021/03/16 00:26:27;;;;;;;23.75;17.37;;;;;;;4.36;83.38;99535.11;1817339;77;21806;-71
2021/03/16 00:28:55;;;;;;;22.40;16.50;;;;;;;4.35;83.31;99534.84;1814582;78;21198;-70
2021/03/16 00:31:23;;;;;;;22.15;16.77;;;;;;;4.40;83.22;99538.07;1801762;77;21175;-73
2021/03/16 00:33:52;;;;;;;22.75;17.30;;;;;;;4.38;83.13;99527.75;1836710;76;21167;-69
2021/03/16 00:36:21;;;;;;;28.83;18.73;;;;;;;4.38;83.11;99530.39;1836203;75;21275;-71
2021/03/16 00:38:50;;;;;;;25.45;17.52;;;;;;;4.38;83.03;99528.28;1804297;77;21388;-70
2021/03/16 00:41:18;;;;;;;23.02;17.00;;;;;;;4.35;82.93;99532.72;1801260;77;21263;-70
2021/03/16 00:43:48;;;;;;;22.67;16.52;;;;;;;4.32;82.88;99523.42;1784076;79;21180;-70
2021/03/16 00:46:16;;;;;;;24.00;17.15;;;;;;;4.32;82.83;99523.42;1809713;77;21154;-70
2021/03/16 00:48:45;;;;;;;21.25;16.77;;;;;;;4.30;82.79;99526.81;1821403;76;21197;-71
2021/03/16 00:51:13;;;;;;;21.52;17.25;;;;;;;4.27;82.76;99525.18;1813835;77;21666;-69
2021/03/16 00:53:42;;;;;;;22.48;18.02;;;;;;;4.27;82.74;99529.14;1815791;77;21234;-71
2021/03/16 00:56:10;;;;;;;21.85;17.23;;;;;;;4.26;82.76;99527.55;1811062;77;21618;-70
2021/03/16 00:58:38;;;;;;;20.50;15.85;;;;;;;4.25;82.70;99520.15;1848753;76;21112;-70
2021/03/16 01:01:07;;;;;;;22.20;16.45;;;;;;;4.18;82.59;99512.38;1804827;77;21186;-71
2021/03/16 01:03:36;;;;;;;22.90;17.45;;;;;;;4.07;82.58;99504.52;1821686;77;21523;-70
2021/03/16 01:06:05;;;;;;;24.70;16.77;;;;;;;3.98;82.63;99511.53;1818606;76;21497;-69
2021/03/16 01:08:33;;;;;;;22.93;17.65;;;;;;;3.93;82.60;99515.92;1819338;76;21471;-70
2021/03/16 01:11:01;;;;;;;24.35;17.82;;;;;;;3.85;82.62;99519.76;1812959;77;21135;-70
2021/03/16 01:13:31;;;;;;;23.35;16.62;;;;;;;3.81;82.66;99517.29;1825671;76;21162;-70
2021/03/16 01:15:59;;;;;;;23.90;17.45;;;;;;;3.81;82.68;99517.29;1812075;78;21317;-70
2021/03/16 01:18:27;;;;;;;21.40;16.30;;;;;;;3.80;82.69;99510.94;1812234;76;21234;-70
2021/03/16 01:20:55;;;;;;;22.98;17.37;;;;;;;3.76;82.73;99508.77;1821587;77;21225;-70
2021/03/16 01:23:24;;;;;;;21.90;16.80;;;;;;;3.75;82.75;99505.86;1824268;76;21599;-70
2021/03/16 01:25:53;;;;;;;20.52;16.57;;;;;;;3.74;82.75;99508.19;1829814;76;21129;-70
2021/03/16 01:28:21;;;;;;;21.93;16.12;;;;;;;3.73;82.75;99505.80;1825237;76;21797;-70
2021/03/16 01:30:49;;;;;;;21.68;16.25;;;;;;;3.71;82.79;99498.63;1821861;78;21295;-69
2021/03/16 01:33:17;;;;;;;20.43;16.40;;;;;;;3.65;82.78;99503.53;1827353;76;21124;-69
2021/03/16 01:35:47;;;;;;;22.40;16.10;;;;;;;3.53;82.87;99500.44;1818397;77;21574;-70
2021/03/16 01:38:14;;;;;;;23.35;17.37;;;;;;;3.46;82.97;99506.39;1831295;76;21070;-70
2021/03/16 01:40:42;;;;;;;21.30;16.35;;;;;;;3.42;83.06;99510.54;1824754;76;21836;-70
2021/03/16 01:43:19;;;;;;;22.30;15.80;;;;;;;3.41;83.15;99511.55;1828307;76;21175;-71
2021/03/16 01:45:47;;;;;;;22.22;16.80;;;;;;;3.37;83.20;99517.03;1824448;76;21229;-70
2021/03/16 01:48:21;;;;;;;25.25;18.82;;;;;;;3.33;83.36;99511.94;1831130;78;21760;-70
2021/03/16 01:50:56;;;;;;;20.03;15.70;;;;;;;3.36;83.50;99515.95;1815670;76;23166;-69
2021/03/16 01:53:25;;;;;;;20.97;16.00;;;;;;;3.32;83.54;99512.95;1800970;78;21523;-69
2021/03/16 01:55:54;;;;;;;20.70;15.53;;;;;;;3.31;83.58;99510.05;1804520;78;22318;-71
2021/03/16 01:58:43;;;;;;;24.15;17.90;;;;;;;3.29;83.61;99516.89;1797585;77;21215;-72
2021/03/16 02:01:31;;;;;;;25.90;18.92;;;;;;;3.25;83.71;99521.02;1811976;78;21552;-72
2021/03/16 02:04:19;;;;;;;24.32;17.70;;;;;;;3.27;83.76;99512.36;1800681;79;21614;-72
2021/03/16 02:07:22;;;;;;;23.40;17.15;;;;;;;3.29;83.71;99521.34;1793023;79;21164;-73
2021/03/16 02:10:13;;;;;;;22.58;16.35;;;;;;;3.27;83.65;99518.16;1789835;79;22085;-72
2021/03/16 02:13:11;;;;;;;25.15;17.32;;;;;;;3.20;83.65;99514.85;1768191;79;21646;-72
2021/03/16 02:16:00;;;;;;;24.45;17.75;;;;;;;3.14;83.70;99513.94;1761803;79;21183;-71
2021/03/16 02:18:51;;;;;;;22.37;16.80;;;;;;;3.13;83.70;99520.27;1793765;79;21499;-72
2021/03/16 02:21:37;;;;;;;23.83;17.20;;;;;;;3.12;83.65;99519.16;1787727;79;21063;-72
2021/03/16 02:24:50;;;;;;;25.40;17.42;;;;;;;3.06;83.66;99514.32;1777480;79;21375;-71
2021/03/16 02:27:53;;;;;;;22.52;16.65;;;;;;;3.05;83.62;99510.86;1794825;79;21508;-72
2021/03/16 02:30:42;;;;;;;20.43;15.45;;;;;;;3.00;83.61;99512.09;1794971;79;21147;-72
2021/03/16 02:33:33;;;;;;;22.85;17.10;;;;;;;2.96;83.68;99517.55;1787672;79;21194;-72
2021/03/16 02:36:20;;;;;;;21.37;16.00;;;;;;;2.91;83.66;99514.80;1795763;79;21215;-72
2021/03/16 02:39:06;;;;;;;21.73;15.72;;;;;;;2.87;83.66;99513.66;1797960;79;21594;-72
2021/03/16 02:41:52;;;;;;;23.83;16.40;;;;;;;2.83;83.67;99513.84;1787428;79;21214;-71
2021/03/16 02:44:39;;;;;;;22.82;17.02;;;;;;;2.80;83.66;99509.03;1781027;79;21159;-72
2021/03/16 02:47:25;;;;;;;23.15;16.55;;;;;;;2.78;83.63;99507.92;1791679;79;21103;-72
2021/03/16 02:50:13;;;;;;;20.30;15.10;;;;;;;2.77;83.62;99505.02;1787196;79;21139;-73
2021/03/16 02:53:01;;;;;;;22.82;16.85;;;;;;;2.78;83.48;99508.45;1801642;79;21335;-72
2021/03/16 02:55:47;;;;;;;23.00;16.25;;;;;;;2.69;83.37;99504.55;1797831;79;21168;-73
2021/03/16 02:58:34;;;;;;;22.55;15.85;;;;;;;2.61;83.35;99503.08;1783880;79;21095;-72
2021/03/16 03:01:20;;;;;;;22.40;17.50;;;;;;;2.52;83.36;99501.30;1793580;79;21213;-73
2021/03/16 03:04:09;;;;;;;25.32;16.80;;;;;;;2.45;83.42;99497.98;1799599;79;21205;-73
2021/03/16 03:06:58;;;;;;;22.37;16.48;;;;;;;2.39;83.46;99496.78;1797232;77;21635;-72
2021/03/16 03:09:44;;;;;;;21.02;14.70;;;;;;;2.34;83.49;99494.84;1787532;79;21162;-71
2021/03/16 03:12:31;;;;;;;22.50;14.85;;;;;;;2.31;83.52;99501.88;1788949;77;21122;-72
2021/03/16 03:15:18;;;;;;;23.62;16.05;;;;;;;2.26;83.52;99499.92;1793155;79;21669;-71
2021/03/16 03:18:04;;;;;;;22.77;16.32;;;;;;;2.19;83.56;99512.92;1793395;79;21169;-71
2021/03/16 03:20:50;;;;;;;21.70;14.90;;;;;;;2.11;83.57;99504.84;1797087;78;21543;-72
2021/03/16 03:23:36;;;;;;;23.83;16.10;;;;;;;2.07;83.60;99499.23;1789497;77;21515;-73
2021/03/16 03:26:32;;;;;;;21.25;14.40;;;;;;;2.05;83.62;99507.86;1752045;79;21203;-73
2021/03/16 03:29:18;;;;;;;20.35;14.35;;;;;;;1.99;83.61;99508.77;1793175;78;21622;-71
2021/03/16 03:32:05;;;;;;;20.32;15.00;;;;;;;1.93;83.59;99506.23;1811194;79;21136;-73
2021/03/16 03:34:52;;;;;;;21.20;15.38;;;;;;;1.84;83.61;99503.11;1772933;79;22343;-72
2021/03/16 03:37:39;;;;;;;23.27;15.15;;;;;;;1.77;83.63;99503.73;1794369;79;21214;-70
2021/03/16 03:40:26;;;;;;;22.20;14.83;;;;;;;1.74;83.70;99508.13;1791476;79;21198;-72
2021/03/16 03:43:12;;;;;;;21.68;15.23;;;;;;;1.67;83.73;99505.59;1798428;79;21510;-74
2021/03/16 03:45:58;;;;;;;20.20;13.32;;;;;;;1.64;83.76;99498.94;1775255;79;21207;-73
2021/03/16 03:48:45;;;;;;;23.85;15.18;;;;;;;1.62;83.79;99504.16;1792162;79;21773;-73
2021/03/16 03:51:33;;;;;;;21.48;15.83;;;;;;;1.57;83.84;99507.44;1802031;79;21155;-72
2021/03/16 03:54:19;;;;;;;23.22;14.07;;;;;;;1.51;83.90;99500.44;1794144;79;21576;-73
2021/03/16 03:57:06;;;;;;;22.45;14.93;;;;;;;1.49;83.96;99501.19;1805789;79;21658;-72
2021/03/16 03:59:52;;;;;;;18.77;13.60;;;;;;;1.45;84.00;99490.83;1799626;79;21262;-73
2021/03/16 04:02:40;;;;;;;22.05;14.75;;;;;;;1.41;84.05;99490.95;1788048;79;21202;-72
2021/03/16 04:05:28;;;;;;;20.70;13.32;;;;;;;1.37;84.12;99489.28;1782893;79;21183;-72
2021/03/16 04:08:14;;;;;;;22.00;14.35;;;;;;;1.34;84.17;99489.73;1809791;78;21619;-73
2021/03/16 04:11:00;;;;;;;24.05;15.78;;;;;;;1.33;84.20;99488.13;1789406;79;21178;-71
2021/03/16 04:13:51;;;;;;;21.25;14.75;;;;;;;1.33;84.24;99489.45;1793111;79;21167;-73
2021/03/16 04:16:37;;;;;;;24.37;15.58;;;;;;;1.33;84.27;99493.39;1792165;79;21196;-72
2021/03/16 04:19:24;;;;;;;21.12;15.55;;;;;;;1.31;84.31;99491.48;1805787;79;21170;-73
2021/03/16 04:22:10;;;;;;;22.73;15.78;;;;;;;1.30;84.38;99499.09;1787424;79;21171;-73
2021/03/16 04:24:57;;;;;;;25.02;15.98;;;;;;;1.28;84.37;99488.50;1796236;77;21150;-71
2021/03/16 04:27:43;;;;;;;20.62;14.87;;;;;;;1.27;84.41;99488.22;1807154;79;21597;-71
2021/03/16 04:30:29;;;;;;;24.57;16.00;;;;;;;1.27;84.47;99494.28;1807879;79;22683;-72
2021/03/16 04:33:16;;;;;;;21.68;14.40;;;;;;;1.26;84.48;99492.69;1794305;79;22086;-71
2021/03/16 04:36:04;;;;;;;21.05;13.60;;;;;;;1.26;84.53;99501.89;1805697;79;21107;-71
2021/03/16 04:38:51;;;;;;;24.77;16.37;;;;;;;1.26;84.61;99501.09;1791540;79;21223;-73
2021/03/16 04:41:37;;;;;;;22.42;16.30;;;;;;;1.27;84.65;99497.42;1802668;79;21099;-71
2021/03/16 04:44:23;;;;;;;24.55;15.35;;;;;;;1.29;84.66;99500.65;1789512;79;21190;-73
2021/03/16 04:47:09;;;;;;;22.17;15.28;;;;;;;1.29;84.67;99498.81;1795853;79;21206;-72
2021/03/16 04:49:56;;;;;;;24.27;16.37;;;;;;;1.31;84.71;99502.01;1794518;77;21627;-72
2021/03/16 04:52:41;;;;;;;28.32;17.57;;;;;;;1.33;84.72;99507.06;1785911;79;21182;-72
2021/03/16 04:55:28;;;;;;;25.50;16.48;;;;;;;1.36;84.77;99506.63;1796680;79;21171;-72
2021/03/16 04:58:14;;;;;;;23.32;15.95;;;;;;;1.37;84.73;99514.28;1798503;79;21372;-72
2021/03/16 05:01:01;;;;;;;24.37;16.15;;;;;;;1.43;84.77;99515.23;1798050;79;21198;-72
2021/03/16 05:03:47;;;;;;;23.38;15.80;;;;;;;1.47;84.75;99512.44;1795936;79;21190;-72
2021/03/16 05:06:34;;;;;;;25.88;17.02;;;;;;;1.53;84.77;99512.87;1791421;77;21075;-72
2021/03/16 05:09:21;;;;;;;21.85;15.00;;;;;;;1.57;84.69;99517.97;1792689;77;21115;-71
2021/03/16 05:12:08;;;;;;;24.05;14.98;;;;;;;1.62;84.63;99513.37;1794113;79;21753;-71
2021/03/16 05:14:54;;;;;;;24.32;15.88;;;;;;;1.67;84.59;99510.05;1794709;79;21178;-72
2021/03/16 05:17:40;;;;;;;25.32;16.67;;;;;;;1.72;84.56;99512.83;1793880;79;21123;-70
2021/03/16 05:20:27;;;;;;;27.07;16.75;;;;;;;1.77;84.52;99512.94;1789897;79;21127;-71
2021/03/16 05:23:13;;;;;;;25.35;14.93;;;;;;;1.82;84.44;99513.08;1787190;79;21226;-71
2021/03/16 05:26:00;;;;;;;23.25;14.80;;;;;;;1.88;84.38;99512.19;1793583;79;22293;-71
2021/03/16 05:28:46;;;;;;;24.15;15.98;;;;;;;1.93;84.29;99507.03;1803687;77;21562;-72
2021/03/16 05:31:32;;;;;;;25.15;16.17;;;;;;;1.94;84.22;99513.92;1798295;79;21567;-72
2021/03/16 05:34:19;;;;;;;26.75;15.88;;;;;;;1.99;84.13;99515.34;1793454;79;21171;-72
2021/03/16 05:37:05;;;;;;;24.57;14.45;;;;;;;2.04;84.10;99519.44;1794642;77;21229;-71
2021/03/16 05:39:51;;;;;;;23.57;14.10;;;;;;;2.10;84.04;99513.23;1791228;78;22300;-71
2021/03/16 05:42:37;;;;;;;27.22;15.68;;;;;;;2.19;84.00;99511.60;1800885;77;21139;-72
2021/03/16 05:45:24;;;;;;;23.70;14.98;;;;;;;2.25;83.80;99518.59;1794096;79;21124;-71
2021/03/16 05:48:10;;;;;;;25.37;16.40;;;;;;;2.29;83.72;99512.64;1793618;77;21250;-71
2021/03/16 05:51:00;;;;;;;24.35;14.70;;;;;;;2.35;83.60;99507.77;1800772;77;21100;-71
2021/03/16 05:53:50;;;;;;;23.50;14.38;;;;;;;2.45;83.60;99515.11;1814753;79;21166;-72
2021/03/16 05:56:40;;;;;;;24.92;14.53;;;;;;;2.57;83.42;99521.20;1798136;79;21185;-71
2021/03/16 05:59:28;;;;;;;24.55;15.10;;;;;;;2.65;83.21;99523.19;1791990;79;21230;-71
2021/03/16 06:02:16;;;;;;;21.35;12.60;;;;;;;2.77;83.12;99531.38;1806962;79;21124;-71
2021/03/16 06:05:03;;;;;;;20.05;13.00;;;;;;;2.90;82.96;99527.70;1814212;79;21991;-70
2021/03/16 06:07:50;;;;;;;19.25;12.07;;;;;;;3.01;82.79;99522.91;1791645;79;21200;-71
2021/03/16 06:10:36;;;;;;;21.20;14.40;;;;;;;3.13;82.64;99523.42;1791183;78;21147;-71
2021/03/16 06:13:24;;;;;;;19.12;12.78;;;;;;;3.24;82.39;99529.17;1798443;79;21131;-71
2021/03/16 06:16:15;;;;;;;22.40;13.48;;;;;;;3.36;82.02;99541.83;1790538;79;21194;-69
2021/03/16 06:19:03;;;;;;;22.22;13.70;;;;;;;3.42;81.61;99563.33;1797031;79;21165;-71
2021/03/16 06:22:18;;;;;;;22.37;14.20;;;;;;;3.47;81.21;99566.06;1800225;79;22349;-71
2021/03/16 06:25:10;;;;;;;20.43;13.72;;;;;;;3.52;80.92;99555.61;1811947;79;21149;-70
2021/03/16 06:28:03;;;;;;;20.60;14.03;;;;;;;3.68;80.94;99583.08;1797284;78;21136;-73
2021/03/16 06:30:49;;;;;;;22.98;14.13;;;;;;;3.88;80.92;99573.94;1808309;79;21179;-72
2021/03/16 06:33:37;;;;;;;22.40;14.15;;;;;;;4.03;80.48;99576.86;1799202;79;22400;-73
2021/03/16 06:36:27;;;;;;;20.77;13.30;;;;;;;4.18;80.29;99587.70;1793561;77;22233;-73
2021/03/16 06:39:19;;;;;;;19.85;12.60;;;;;;;4.30;79.53;99587.61;1793570;79;21261;-71
2021/03/16 06:42:09;;;;;;;19.85;13.22;;;;;;;4.32;79.11;99582.91;1798681;79;21223;-73
2021/03/16 06:45:06;;;;;;;21.10;12.95;;;;;;;4.35;78.72;99565.24;1809974;77;21576;-72
2021/03/16 06:47:52;;;;;;;16.87;11.65;;;;;;;4.37;78.52;99559.70;1791542;78;21159;-73
2021/03/16 06:50:40;;;;;;;19.40;13.40;;;;;;;4.39;78.33;99558.95;1800661;79;21816;-71
2021/03/16 06:53:27;;;;;;;18.40;12.80;;;;;;;4.42;78.10;99556.63;1793146;79;21175;-71
2021/03/16 06:56:28;;;;;;;21.10;12.98;;;;;;;4.48;77.86;99556.19;1787122;79;21155;-72
2021/03/16 06:59:32;;;;;;;20.50;13.35;;;;;;;4.57;77.76;99563.18;1784535;79;21230;-71
2021/03/16 07:02:18;;;;;;;;;;;;;;;4.64;77.27;99551.91;1784051;79;21092;-72
2021/03/16 07:05:07;;;;;;;18.07;12.70;;;;;;;4.73;77.22;99546.49;1801197;79;21361;-72
2021/03/16 07:07:53;;;;;;;17.62;12.85;;;;;;;4.82;76.77;99547.69;1796692;79;21116;-72
2021/03/16 07:10:41;;;;;;;19.37;12.70;;;;;;;4.92;76.59;99539.09;1799599;77;21191;-72
2021/03/16 07:13:30;;;;;;;22.70;13.25;;;;;;;5.03;76.21;99543.45;1801058;77;21073;-71
2021/03/16 07:16:16;;;;;;;20.77;14.18;;;;;;;5.05;75.63;99547.20;1803826;79;21616;-72
2021/03/16 07:19:05;;;;;;;19.12;12.63;;;;;;;5.07;75.36;99554.38;1801825;79;21197;-71
2021/03/16 07:21:54;;;;;;;22.62;13.55;;;;;;;5.09;75.12;99552.27;1793137;77;21570;-71
2021/03/16 07:24:41;;;;;;;20.62;11.95;;;;;;;5.10;74.94;99549.39;1787490;78;21172;-71
2021/03/16 07:27:27;;;;;;;20.88;13.32;;;;;;;5.11;74.83;99547.55;1781147;79;21212;-72
2021/03/16 07:30:14;;;;;;;19.00;12.50;;;;;;;5.17;75.08;99551.33;1800179;79;21060;-72
2021/03/16 07:33:02;;;;;;;21.73;12.55;;;;;;;5.29;74.89;99547.75;1806384;79;21364;-72
2021/03/16 07:35:49;;;;;;;15.40;10.50;;;;;;;5.38;74.63;99544.42;1798836;77;21143;-70
2021/03/16 07:38:39;;;;;;;18.07;12.28;;;;;;;5.51;74.52;99551.72;1797627;79;21119;-72
2021/03/16 07:41:25;;;;;;;17.12;11.05;;;;;;;5.56;74.04;99534.55;1790508;79;21241;-72
2021/03/16 07:44:14;;;;;;;15.98;10.72;;;;;;;5.59;73.78;99525.60;1795266;79;21194;-72
2021/03/16 07:47:04;;;;;;;20.45;12.63;;;;;;;5.64;73.69;99537.56;1787875;79;21881;-72
2021/03/16 07:50:01;;;;;;;17.77;12.82;;;;;;;5.68;73.52;99533.88;1801013;77;21206;-71
2021/03/16 07:52:48;;;;;;;17.90;11.95;;;;;;;5.71;73.31;99529.41;1800928;79;21168;-71
2021/03/16 07:55:36;;;;;;;15.83;10.88;;;;;;;5.82;73.52;99536.93;1798382;79;21071;-74
2021/03/16 07:58:26;;;;;;;19.25;11.65;;;;;;;5.96;73.41;99530.75;1791617;79;21154;-73
2021/03/16 08:01:14;;;;;;;15.93;11.35;;;;;;;6.08;73.12;99526.06;1799267;79;22537;-73
2021/03/16 08:04:11;;;;;;;18.92;13.13;;;;;;;6.17;73.15;99528.53;1792316;78;21227;-70
2021/03/16 08:07:02;;;;;;;19.98;12.90;;;;;;;6.28;73.23;99530.20;1801291;79;21203;-70
2021/03/16 08:09:52;;;;;;;18.50;13.65;;;;;;;6.41;72.93;99523.67;1798837;79;21208;-72
2021/03/16 08:12:38;;;;;;;21.07;12.58;;;;;;;6.50;72.64;99520.83;1792541;80;21219;-73
2021/03/16 08:15:25;;;;;;;15.00;11.12;;;;;;;6.47;72.02;99525.84;1804887;79;22036;-72
2021/03/16 08:18:27;;;;;;;19.48;13.55;;;;;;;6.45;71.96;99519.98;1788809;80;21636;-74
2021/03/16 08:21:14;;;;;;;17.32;11.57;;;;;;;6.43;72.02;99520.25;1801431;79;21562;-73
2021/03/16 08:24:15;;;;;;;17.12;12.15;;;;;;;6.47;72.09;99517.88;1803373;79;21234;-74
2021/03/16 08:27:02;;;;;;;20.43;11.85;;;;;;;6.53;72.12;99516.87;1798530;79;21182;-71
2021/03/16 08:29:49;;;;;;;18.30;11.25;;;;;;;6.68;72.12;99512.99;1792373;79;22159;-73
2021/03/16 08:32:36;;;;;;;18.87;12.07;;;;;;;6.84;71.78;99507.22;1797860;79;21123;-73
2021/03/16 08:35:24;;;;;;;17.27;12.40;;;;;;;6.98;71.41;99517.66;1802445;79;21591;-72
2021/03/16 08:38:10;;;;;;;20.43;12.20;;;;;;;7.04;70.65;99506.01;1803328;79;21182;-74
2021/03/16 08:41:10;;;;;;;19.10;12.50;;;;;;;7.14;70.87;99495.14;1760248;79;21171;-71
2021/03/16 08:43:57;;;;;;;18.02;12.55;;;;;;;7.29;70.40;99511.92;1786788;80;22371;-72
2021/03/16 08:46:45;;;;;;;18.25;12.40;;;;;;;7.38;69.41;99510.11;1798117;79;21126;-73
2021/03/16 08:49:43;;;;;;;17.55;11.70;;;;;;;7.39;69.67;99506.39;1798521;79;21063;-72
2021/03/16 08:52:29;;;;;;;19.40;12.43;;;;;;;7.54;69.76;99515.73;1807250;79;21139;-72
2021/03/16 08:55:24;;;;;;;18.73;13.95;;;;;;;7.68;69.10;99504.86;1812096;79;21678;-74
2021/03/16 08:58:09;;;;;;;18.70;11.37;;;;;;;7.77;68.41;99496.38;1816877;77;22446;-71
2021/03/16 09:00:55;;;;;;;16.80;11.40;;;;;;;7.70;68.44;99508.06;1788059;78;21607;-72
2021/03/16 09:03:43;;;;;;;17.23;11.73;;;;;;;7.68;68.12;99504.86;1787742;78;21195;-70
2021/03/16 09:06:31;;;;;;;18.90;12.78;;;;;;;7.62;67.69;99502.45;1818016;77;21178;-71
2021/03/16 09:09:26;;;;;;;16.17;12.20;;;;;;;7.52;67.99;99507.22;1816117;78;21730;-70
2021/03/16 09:12:13;;;;;;;16.12;11.73;;;;;;;7.50;68.20;99507.49;1796825;78;21211;-73
2021/03/16 09:15:19;;;;;;;17.77;11.50;;;;;;;7.56;68.27;99504.30;1799487;77;21052;-71
2021/03/16 09:18:06;;;;;;;16.65;10.93;;;;;;;7.64;68.77;99506.45;1789301;80;22298;-74
2021/03/16 09:20:52;;;;;;;17.40;10.98;;;;;;;7.71;68.12;99512.31;1802941;78;21431;-73
2021/03/16 09:23:39;;;;;;;18.27;11.48;;;;;;;7.62;67.38;99515.75;1804035;77;21073;-74
2021/03/16 09:26:26;;;;;;;19.02;13.03;;;;;;;7.43;67.49;99513.56;1793190;78;21166;-72
2021/03/16 09:29:12;;;;;;;18.62;12.07;;;;;;;7.36;68.01;99511.69;1783263;78;21792;-72
2021/03/16 09:32:04;;;;;;;19.42;12.40;;;;;;;7.28;68.19;99508.22;1785116;78;21202;-73
2021/03/16 09:34:51;;;;;;;14.47;10.20;;;;;;;7.19;68.04;99521.19;1747321;80;21200;-71
2021/03/16 09:37:51;;;;;;;18.80;12.15;;;;;;;7.17;68.46;99522.00;1801564;79;21145;-72
2021/03/16 09:40:43;;;;;;;16.67;10.50;;;;;;;7.24;68.65;99525.20;1904701;72;22597;-74
2021/03/16 09:43:36;;;;;;;17.67;11.18;;;;;;;7.24;69.02;99527.07;1874813;74;21620;-73
2021/03/16 09:46:12;;;;;;;18.95;12.50;;;;;;;7.35;69.24;99530.02;1864393;75;22763;-72
2021/03/16 09:48:52;;;;;;;17.90;11.75;;;;;;;7.52;69.31;99525.28;1864147;75;21153;-71
2021/03/16 09:51:26;;;;;;;17.35;12.45;;;;;;;7.61;68.49;99516.28;1880019;74;21108;-73
2021/03/16 09:53:58;;;;;;;17.75;11.30;;;;;;;7.60;68.16;99527.98;1872157;75;21019;-72
2021/03/16 09:56:32;;;;;;;19.00;12.03;;;;;;;7.64;67.71;99522.94;1878962;74;21157;-71
2021/03/16 09:59:04;;;;;;;15.83;12.33;;;;;;;7.60;67.64;99530.64;1838440;77;21374;-72
2021/03/16 10:01:40;;;;;;;19.95;14.63;;;;;;;7.60;67.85;99535.95;1814207;77;21154;-72
2021/03/16 10:04:12;;;;;;;19.00;12.75;;;;;;;7.64;67.76;99540.20;1811920;78;21220;-72
2021/03/16 10:06:44;;;;;;;17.35;14.33;;;;;;;7.64;67.84;99539.67;1851744;76;21150;-72
2021/03/16 10:09:20;;;;;;;20.60;16.55;;;;;;;7.73;67.81;99540.77;1813606;78;21076;-71
2021/03/16 10:11:49;;;;;;;20.50;16.15;;;;;;;7.85;67.16;99538.38;1807654;77;21379;-71
2021/03/16 10:14:33;;;;;;;20.97;14.93;;;;;;;7.91;67.03;99539.98;1808580;78;21175;-73
2021/03/16 10:17:01;;;;;;;21.57;16.10;;;;;;;8.03;66.73;99542.38;1833035;75;21559;-72
2021/03/16 10:19:30;;;;;;;19.25;14.83;;;;;;;8.13;66.32;99539.22;1839333;76;21631;-72
2021/03/16 10:21:58;;;;;;;19.82;15.53;;;;;;;8.25;66.38;99531.49;1841353;77;21552;-72
2021/03/16 10:24:29;;;;;;;18.90;15.10;;;;;;;8.47;66.18;99532.05;1835784;77;21356;-71
2021/03/16 10:29:38;;;;;;;17.47;13.83;;;;;;;8.63;64.40;99526.97;1803462;79;22713;-71
2021/03/16 10:32:06;;;;;;;16.70;12.82;;;;;;;8.49;64.43;99526.45;1801636;79;21107;-72
2021/03/16 10:34:34;;;;;;;20.77;12.90;;;;;;;8.37;64.64;99522.72;1795074;79;21366;-71
2021/03/16 10:37:03;;;;;;;16.87;13.22;;;;;;;8.31;64.99;99529.89;1801568;79;21188;-71
2021/03/16 10:39:30;;;;;;;19.32;13.90;;;;;;;8.30;65.29;99526.19;1781968;80;21125;-71
2021/03/16 10:41:58;;;;;;;18.27;13.47;;;;;;;8.31;65.61;99523.24;1776844;80;21687;-71
2021/03/16 10:44:26;;;;;;;17.10;12.45;;;;;;;8.34;65.96;99517.39;1776096;80;22239;-73
2021/03/16 10:46:55;;;;;;;18.45;13.95;;;;;;;8.37;65.90;99526.70;1790918;79;21807;-70
2021/03/16 10:49:24;;;;;;;17.87;13.35;;;;;;;8.31;65.78;99523.78;1765789;80;21152;-71
2021/03/16 10:51:53;;;;;;;20.62;14.65;;;;;;;8.19;65.75;99523.53;1764026;80;21161;-71
2021/03/16 10:54:25;;;;;;;18.17;13.62;;;;;;;8.09;65.92;99522.17;1770246;81;21625;-71
2021/03/16 10:56:56;;;;;;;19.90;13.83;;;;;;;8.06;66.47;99518.73;1778235;80;21644;-73
2021/03/16 10:59:24;;;;;;;17.32;12.03;;;;;;;8.06;67.02;99514.75;1813606;79;21360;-70
2021/03/16 11:01:52;;;;;;;18.30;13.08;;;;;;;8.00;66.99;99510.49;1767081;80;21133;-71
2021/03/16 11:04:21;;;;;;;16.85;12.07;;;;;;;7.98;67.14;99503.30;1770911;80;21185;-71
2021/03/16 11:06:49;;;;;;;18.62;12.58;;;;;;;8.09;67.29;99504.09;1779066;80;21136;-71
2021/03/16 11:09:17;;;;;;;15.72;11.83;;;;;;;8.30;67.35;99499.58;1800461;79;21149;-71
2021/03/16 11:11:45;;;;;;;18.98;12.85;;;;;;;8.59;67.26;99495.31;1774923;80;21787;-71
2021/03/16 11:14:15;;;;;;;18.05;11.97;;;;;;;8.89;66.10;99493.63;1803609;79;21136;-71
2021/03/16 11:16:44;;;;;;;18.45;12.18;;;;;;;9.08;65.44;99483.98;1812657;79;21361;-72
2021/03/16 11:19:13;;;;;;;18.60;11.30;;;;;;;9.19;64.50;99483.92;1794858;79;21065;-70
2021/03/16 11:21:43;;;;;;;15.10;10.83;;;;;;;9.16;64.11;99474.06;1801437;79;21637;-72
2021/03/16 11:24:11;;;;;;;15.83;11.22;;;;;;;9.13;64.24;99482.61;1805269;79;21426;-73
2021/03/16 11:26:40;;;;;;;16.48;10.82;;;;;;;9.11;64.44;99479.95;1802066;79;21136;-72
2021/03/16 11:29:08;;;;;;;16.12;11.30;;;;;;;9.17;64.47;99476.19;1765685;80;21658;-71
2021/03/16 11:31:37;;;;;;;18.80;10.90;;;;;;;9.24;63.80;99482.02;1779038;79;21168;-72
2021/03/16 11:34:23;;;;;;;14.93;10.57;;;;;;;9.30;64.07;99488.13;1773022;80;21597;-72
2021/03/16 11:37:09;;;;;;;15.53;10.93;;;;;;;9.29;63.36;99477.21;1775401;80;21735;-72
2021/03/16 11:39:56;;;;;;;14.13;10.30;;;;;;;9.24;63.79;99484.67;1784545;79;21326;-71
2021/03/16 11:42:42;;;;;;;17.07;11.53;;;;;;;9.23;63.95;99479.64;1775191;79;21589;-72
2021/03/16 11:45:30;;;;;;;16.27;10.90;;;;;;;9.26;64.41;99473.76;1787520;79;21272;-71
2021/03/16 11:48:16;;;;;;;16.63;12.00;;;;;;;9.37;64.48;99465.96;1783156;79;21454;-73
2021/03/16 11:51:04;;;;;;;15.17;10.63;;;;;;;9.49;64.12;99461.09;1784282;79;21254;-72
2021/03/16 11:53:51;;;;;;;15.53;10.73;;;;;;;9.63;63.88;99456.73;1771771;79;21227;-74
2021/03/16 11:56:37;;;;;;;16.63;11.37;;;;;;;9.81;63.37;99455.83;1783020;79;21309;-71
2021/03/16 11:59:23;;;;;;;15.20;10.50;;;;;;;9.87;62.83;99468.02;1789204;79;21364;-71
2021/03/16 12:02:09;;;;;;;16.63;11.03;;;;;;;9.87;62.87;99458.69;1789705;80;21666;-72
2021/03/16 12:04:56;;;;;;;18.27;11.30;;;;;;;9.90;62.82;99466.67;1786414;79;21392;-70
2021/03/16 12:07:43;;;;;;;17.57;11.63;;;;;;;9.86;62.67;99473.11;1774628;80;21414;-71
2021/03/16 12:10:30;;;;;;;15.07;10.73;;;;;;;9.84;62.49;99471.27;1773208;80;21410;-71
2021/03/16 12:13:17;;;;;;;16.87;11.43;;;;;;;9.89;62.07;99468.55;1783153;79;21964;-71
2021/03/16 12:16:06;;;;;;;18.17;11.70;;;;;;;9.91;61.79;99465.63;1782403;78;21677;-73
2021/03/16 12:18:52;;;;;;;16.10;11.73;;;;;;;9.94;61.50;99463.73;1792768;79;22246;-71
2021/03/16 12:21:38;;;;;;;17.13;11.53;;;;;;;9.91;61.18;99461.08;1791508;80;21499;-73
2021/03/16 12:24:24;;;;;;;15.87;10.50;;;;;;;9.90;61.88;99458.13;1774811;78;21805;-72
2021/03/16 12:27:10;;;;;;;16.27;11.23;;;;;;;10.02;61.93;99458.58;1781182;80;21678;-72
2021/03/16 12:29:56;;;;;;;15.33;10.53;;;;;;;10.15;61.83;99457.67;1785929;79;21427;-72
2021/03/16 12:32:42;;;;;;;13.90;9.70;;;;;;;10.16;61.07;99448.58;1813453;77;22310;-73
2021/03/16 12:35:30;;;;;;;15.10;10.50;;;;;;;10.12;61.52;99458.23;1769457;79;21388;-73
2021/03/16 12:38:18;;;;;;;14.30;10.20;;;;;;;10.09;61.63;99456.38;1772292;79;21303;-73